.
WxDataArchive / Data Records for 2009-03-23
2009-03-22 March 2009 2009-03-24

Data Records for Monday, 23 March 2009

Time	Temp	Chill	HIndex	Humid	Dewpt	 Wind 	HiWind	WindDir	Rain 	Barom 
-----	----	-----	------	-----	-----	------	------	-------	-----	----- 
00:00	36.8	31.9	36.8	62	25.0	6	12	112	0.00	30.420 
00:05	36.6	32.5	36.6	63	25.2	5	12	90	0.00	30.417 
00:10	36.5	32.4	36.5	63	25.1	5	9	112	0.00	30.418 
00:15	36.3	32.1	36.3	64	25.3	5	10	112	0.00	30.420 
00:20	36.2	32.9	36.2	64	25.2	4	11	90	0.00	30.420 
00:25	36.0	32.7	36.0	64	25.0	4	10	90	0.00	30.419 
00:30	35.9	32.6	35.9	65	25.3	4	7	90	0.00	30.417 
00:35	35.8	32.5	35.8	65	25.2	4	10	112	0.00	30.417 
00:40	35.5	35.5	35.5	66	25.3	3	7	112	0.00	30.420 
00:45	35.3	35.3	35.3	66	25.1	3	7	90	0.00	30.420 
00:50	35.2	35.2	35.2	67	25.4	2	7	90	0.00	30.422 
00:55	35.2	31.8	35.2	67	25.4	4	10	112	0.00	30.421 
01:00	35.0	31.5	35.0	67	25.2	4	10	90	0.00	30.422 
01:05	34.9	34.9	34.9	67	25.1	3	9	90	0.00	30.421 
01:10	34.9	31.4	34.9	67	25.1	4	7	112	0.00	30.421 
01:15	34.7	34.7	34.7	67	24.9	3	7	90	0.00	30.419 
01:20	34.4	30.8	34.4	68	24.9	4	9	112	0.00	30.418 
01:25	34.3	34.3	34.3	68	24.9	3	6	90	0.00	30.420 
01:30	34.3	34.3	34.3	68	24.9	3	5	90	0.00	30.419 
01:35	34.1	34.1	34.1	68	24.7	3	10	90	0.00	30.418 
01:40	34.0	30.4	34.0	67	24.2	4	10	90	0.00	30.419 
01:45	34.0	34.0	34.0	67	24.2	3	6	90	0.00	30.420 
01:50	33.8	30.2	33.8	67	24.0	4	9	90	0.00	30.420 
01:55	33.8	30.2	33.8	66	23.7	4	10	90	0.00	30.421 
02:00	33.7	29.1	33.7	65	23.2	5	11	112	0.00	30.421 
02:05	33.7	29.1	33.7	65	23.2	5	9	112	0.00	30.420 
02:10	33.5	28.0	33.5	65	23.0	6	13	112	0.00	30.420 
02:15	33.5	28.8	33.5	65	23.0	5	13	112	0.00	30.419 
02:20	33.4	29.7	33.4	65	22.9	4	10	90	0.00	30.421 
02:25	33.1	29.3	33.1	65	22.6	4	9	90	0.00	30.419 
02:30	32.9	29.1	32.9	65	22.4	4	7	90	0.00	30.417 
02:35	32.8	32.8	32.8	66	22.7	3	7	112	0.00	30.416 
02:40	32.7	32.7	32.7	66	22.6	3	6	90	0.00	30.414 
02:45	32.5	32.5	32.5	67	22.8	3	6	112	0.00	30.410 
02:50	32.4	32.4	32.4	67	22.7	3	7	112	0.00	30.410 
02:55	32.1	32.1	32.1	69	23.1	3	7	90	0.00	30.410 
03:00	32.1	32.1	32.1	69	23.1	3	6	90	0.00	30.410 
03:05	31.9	31.9	31.9	70	23.2	3	6	90	0.00	30.413 
03:10	31.8	31.8	31.8	70	23.2	3	6	90	0.00	30.414 
03:15	31.8	27.8	31.8	70	23.2	4	9	112	0.00	30.415 
03:20	31.8	31.8	31.8	69	22.8	3	7	112	0.00	30.416 
03:25	31.9	28.0	31.9	69	22.9	4	12	112	0.00	30.416 
03:30	31.8	31.8	31.8	69	22.8	3	10	112	0.00	30.417 
03:35	31.8	31.8	31.8	69	22.8	3	7	90	0.00	30.416 
03:40	31.6	27.6	31.6	69	22.6	4	7	90	0.00	30.413 
03:45	31.6	27.6	31.6	69	22.6	4	10	90	0.00	30.413 
03:50	31.5	27.5	31.5	69	22.5	4	6	90	0.00	30.411 
03:55	31.5	31.5	31.5	69	22.5	3	6	90	0.00	30.412 
04:00	31.5	31.5	31.5	69	22.5	3	7	112	0.00	30.412 
04:05	31.5	27.5	31.5	69	22.5	4	10	90	0.00	30.413 
04:10	31.5	31.5	31.5	69	22.5	3	9	112	0.00	30.417 
04:15	31.5	31.5	31.5	70	22.9	3	7	112	0.00	30.420 
04:20	31.3	31.3	31.3	70	22.7	3	7	90	0.00	30.416 
04:25	31.3	31.3	31.3	70	22.7	3	10	112	0.00	30.414 
04:30	31.2	31.2	31.2	71	22.9	3	6	90	0.00	30.411 
04:35	31.0	31.0	31.0	72	23.1	3	5	90	0.00	30.411 
04:40	31.0	31.0	31.0	72	23.1	3	6	112	0.00	30.412 
04:45	31.0	31.0	31.0	72	23.1	3	7	112	0.00	30.410 
04:50	31.0	26.9	31.0	73	23.4	4	9	90	0.00	30.410 
04:55	31.0	26.9	31.0	73	23.4	4	8	112	0.00	30.411 
05:00	30.9	30.9	30.9	73	23.3	3	7	90	0.00	30.411 
05:05	30.9	30.9	30.9	74	23.6	3	10	90	0.00	30.412 
05:10	30.7	30.7	30.7	75	23.7	3	7	90	0.00	30.413 
05:15	30.6	26.5	30.6	75	23.6	4	9	112	0.00	30.412 
05:20	30.4	30.4	30.4	76	23.8	3	8	90	0.00	30.413 
05:25	30.3	30.3	30.3	76	23.7	3	9	112	0.00	30.413 
05:30	30.1	30.1	30.1	77	23.8	3	7	90	0.00	30.414 
05:35	30.0	30.0	30.0	77	23.7	3	9	90	0.00	30.412 
05:40	30.0	30.0	30.0	78	24.0	3	6	90	0.00	30.414 
05:45	29.8	29.8	29.8	78	23.8	3	9	112	0.00	30.413 
05:50	29.7	29.7	29.7	78	23.7	3	6	112	0.00	30.413 
05:55	29.7	29.7	29.7	79	24.0	3	7	112	0.00	30.416 
06:00	29.5	29.5	29.5	79	23.8	3	7	90	0.00	30.416 
06:05	29.5	29.5	29.5	80	24.1	3	7	112	0.00	30.421 
06:10	29.5	29.5	29.5	80	24.1	3	7	90	0.00	30.421 
06:15	29.5	29.5	29.5	81	24.4	3	7	112	0.00	30.422 
06:20	29.5	29.5	29.5	81	24.4	3	6	90	0.00	30.423 
06:25	29.7	29.7	29.7	81	24.6	3	9	112	0.00	30.426 
06:30	29.7	29.7	29.7	81	24.6	3	7	90	0.00	30.430 
06:35	29.8	29.8	29.8	81	24.7	3	6	90	0.00	30.431 
06:40	30.0	30.0	30.0	82	25.2	3	7	90	0.00	30.430 
06:45	30.1	25.9	30.1	82	25.3	4	9	90	0.00	30.431 
06:50	30.6	25.4	30.6	81	25.5	5	11	90	0.00	30.429 
06:55	30.9	24.9	30.9	81	25.8	6	14	90	0.00	30.431 
07:00	31.0	25.9	31.0	81	25.9	5	11	90	0.00	30.433 
07:05	31.2	26.1	31.2	81	26.1	5	13	112	0.00	30.437 
07:10	31.3	25.4	31.3	80	25.9	6	12	90	0.00	30.438 
07:15	31.5	25.6	31.5	80	26.1	6	14	90	0.00	30.437 
07:20	31.6	26.6	31.6	80	26.2	5	11	112	0.00	30.439 
07:25	31.8	26.0	31.8	79	26.0	6	12	112	0.00	30.438 
07:30	31.8	26.0	31.8	79	26.0	6	14	90	0.00	30.438 
07:35	31.9	26.1	31.9	79	26.1	6	11	112	0.00	30.438 
07:40	32.1	26.3	32.1	78	26.0	6	12	112	0.00	30.444 
07:45	32.4	27.5	32.4	78	26.3	5	12	112	0.00	30.449 
07:50	32.7	28.9	32.7	77	26.3	4	10	112	0.00	30.448 
07:55	32.9	29.1	32.9	77	26.5	4	8	112	0.00	30.446 
08:00	33.2	28.5	33.2	76	26.5	5	11	112	0.00	30.447 
08:05	33.4	27.9	33.4	75	26.3	6	12	112	0.00	30.448 
08:10	33.5	28.0	33.5	74	26.1	6	13	90	0.00	30.446 
08:15	33.7	28.3	33.7	74	26.3	6	13	112	0.00	30.451 
08:20	33.8	28.4	33.8	73	26.1	6	12	90	0.00	30.453 
08:25	34.3	29.8	34.3	73	26.6	5	10	112	0.00	30.453 
08:30	34.6	29.3	34.6	72	26.5	6	12	112	0.00	30.451 
08:35	34.9	29.0	34.9	70	26.1	7	11	90	0.00	30.449 
08:40	35.0	29.1	35.0	69	25.9	7	13	112	0.00	30.450 
08:45	35.3	29.5	35.3	69	26.2	7	17	90	0.00	30.450 
08:50	35.6	29.8	35.6	68	26.1	7	12	112	0.00	30.451 
08:55	36.2	32.0	36.2	66	26.0	5	9	112	0.00	30.448 
09:00	36.8	32.7	36.8	65	26.2	5	11	90	0.00	30.444 
09:05	37.0	31.5	37.0	63	25.6	7	13	112	0.00	30.443 
09:10	37.0	31.5	37.0	63	25.6	7	12	112	0.00	30.440 
09:15	37.3	33.3	37.3	63	25.9	5	11	112	0.00	30.441 
09:20	37.8	32.5	37.8	61	25.6	7	13	112	0.00	30.440 
09:25	37.9	32.0	37.9	59	24.9	8	15	112	0.00	30.444 
09:30	38.2	33.0	38.2	59	25.2	7	15	112	0.00	30.449 
09:35	38.8	33.7	38.8	57	24.9	7	14	90	0.00	30.450 
09:40	39.1	34.7	39.1	58	25.6	6	13	112	0.00	30.447 
09:45	39.2	33.6	39.2	57	25.3	8	13	112	0.00	30.446 
09:50	39.3	34.9	39.3	57	25.4	6	13	90	0.00	30.444 
09:55	40.1	35.9	40.1	55	25.2	6	12	112	0.00	30.440 
10:00	40.2	35.4	40.2	54	24.9	7	13	112	0.00	30.438 
10:05	40.2	34.8	40.2	53	24.5	8	15	112	0.00	30.438 
10:10	40.6	36.5	40.6	52	24.4	6	12	90	0.00	30.438 
10:15	40.9	36.2	40.9	50	23.7	7	13	112	0.00	30.434 
10:20	41.3	36.7	41.3	51	24.6	7	11	112	0.00	30.434 
10:25	41.6	37.1	41.6	50	24.4	7	12	112	0.00	30.434 
10:30	41.8	36.8	41.8	48	23.6	8	15	112	0.00	30.433 
10:35	41.8	37.9	41.8	49	24.1	6	14	112	0.00	30.433 
10:40	42.5	38.2	42.5	47	23.7	7	14	112	0.00	30.432 
10:45	42.9	38.6	42.9	45	23.0	7	13	90	0.00	30.427 
10:50	43.6	40.7	43.6	44	23.1	5	10	112	0.00	30.423 
10:55	43.9	39.8	43.9	43	22.9	7	13	112	0.00	30.420 
11:00	43.8	39.7	43.8	44	23.3	7	14	112	0.00	30.417 
11:05	43.8	39.2	43.8	43	22.8	8	16	90	0.00	30.419 
11:10	43.8	39.2	43.8	42	22.2	8	15	112	0.00	30.421 
11:15	44.1	40.6	44.1	44	23.6	6	13	112	0.00	30.419 
11:20	44.8	42.1	44.8	44	24.2	5	10	112	0.00	30.417 
11:25	45.1	41.3	45.1	40	22.2	7	16	112	0.00	30.418 
11:30	44.9	41.0	44.9	40	22.1	7	16	90	0.00	30.419 
11:35	45.1	41.8	45.1	41	22.8	6	14	112	0.00	30.418 
11:40	45.4	41.6	45.4	37	20.7	7	12	112	0.00	30.417 
11:45	45.1	41.3	45.1	39	21.6	7	14	90	0.00	30.416 
11:50	45.8	42.1	45.8	38	21.7	7	14	90	0.00	30.417 
11:55	46.1	42.5	46.1	39	22.5	7	12	112	0.00	30.416 
12:00	46.4	42.9	46.4	35	20.3	7	14	112	0.00	30.414 
12:05	46.4	42.9	46.4	36	20.9	7	13	112	0.00	30.415 
12:10	46.5	43.0	46.5	36	21.0	7	13	112	0.00	30.414 
12:15	46.8	43.9	46.8	35	20.6	6	13	112	0.00	30.412 
12:20	47.3	43.9	47.3	35	21.0	7	11	112	0.00	30.412 
12:25	47.4	44.6	47.4	33	19.8	6	12	112	0.00	30.409 
12:30	47.7	44.9	47.7	32	19.3	6	12	112	0.00	30.408 
12:35	47.9	44.7	47.9	35	21.6	7	16	112	0.00	30.404 
12:40	48.0	44.8	48.0	32	19.6	7	14	112	0.00	30.410 
12:45	48.2	46.1	48.2	33	20.5	5	13	112	0.00	30.404 
12:50	48.5	45.4	48.5	32	20.0	7	12	112	0.00	30.403 
12:55	48.8	46.8	48.8	33	21.0	5	12	90	0.00	30.401 
13:00	48.5	44.9	48.5	33	20.7	8	16	112	0.00	30.400 
13:05	49.1	47.2	49.1	34	22.0	5	12	112	0.00	30.400 
13:10	49.6	48.4	49.6	32	21.0	4	10	90	0.00	30.398 
13:15	49.6	46.7	49.6	31	20.2	7	13	90	0.00	30.392 
13:20	49.5	46.6	49.5	31	20.1	7	12	112	0.00	30.390 
13:25	49.9	47.5	49.9	32	21.2	6	12	90	0.00	30.385 
13:30	50.1	50.1	50.1	28	18.3	8	15	112	0.00	30.384 
13:35	49.8	46.9	49.8	32	21.1	7	14	112	0.00	30.381 
13:40	50.1	50.1	50.1	28	18.3	8	14	112	0.00	30.380 
13:45	50.4	50.4	50.4	28	18.5	7	11	112	0.00	30.371 
13:50	50.8	50.8	50.8	30	20.5	8	13	112	0.00	30.369 
13:55	51.0	51.0	51.0	31	21.4	7	15	112	0.00	30.367 
14:00	51.1	51.1	51.1	31	21.5	7	14	112	0.00	30.368 
14:05	51.1	51.1	51.1	29	20.0	8	16	90	0.00	30.366 
14:10	51.3	51.3	51.3	30	20.9	7	14	112	0.00	30.361 
14:15	51.4	51.4	51.4	30	21.0	7	12	112	0.00	30.358 
14:20	51.4	51.4	51.4	28	19.4	8	17	112	0.00	30.356 
14:25	51.3	51.3	51.3	30	20.9	7	15	90	0.00	30.355 
14:30	51.4	51.4	51.4	29	20.2	7	13	90	0.00	30.354 
14:35	51.7	51.7	51.7	30	21.3	6	12	112	0.00	30.351 
14:40	52.0	52.0	52.0	31	22.3	6	14	112	0.00	30.350 
14:45	52.0	52.0	52.0	30	21.5	6	13	112	0.00	30.352 
14:50	51.7	51.7	51.7	29	20.5	7	13	112	0.00	30.351 
14:55	51.7	51.7	51.7	28	19.7	7	19	112	0.00	30.351 
15:00	51.9	51.9	51.9	31	22.2	6	12	90	0.00	30.350 
15:05	52.3	52.3	52.3	29	21.0	7	14	112	0.00	30.347 
15:10	52.2	52.2	52.2	28	20.1	6	15	112	0.00	30.342 
15:15	52.3	52.3	52.3	28	20.2	6	12	112	0.00	30.341 
15:20	52.3	52.3	52.3	27	19.3	7	14	90	0.00	30.339 
15:25	52.2	52.2	52.2	28	20.1	9	16	112	0.00	30.339 
15:30	52.3	52.3	52.3	28	20.2	8	13	112	0.00	30.338 
15:35	52.8	52.8	52.8	28	20.6	7	16	90	0.00	30.337 
15:40	52.8	52.8	52.8	26	18.9	9	15	112	0.00	30.336 
15:45	52.6	52.6	52.6	28	20.4	7	12	90	0.00	30.334 
15:50	52.5	52.5	52.5	26	18.6	8	14	90	0.00	30.331 
15:55	51.9	51.9	51.9	27	19.0	8	18	90	0.00	30.330 
16:00	51.6	51.6	51.6	27	18.7	7	14	112	0.00	30.331 
16:05	51.4	51.4	51.4	28	19.4	7	17	90	0.00	30.331 
16:10	51.4	51.4	51.4	28	19.4	6	12	112	0.00	30.333 
16:15	51.3	51.3	51.3	27	18.5	8	17	90	0.00	30.333 
16:20	51.0	51.0	51.0	28	19.1	8	15	112	0.00	30.332 
16:25	50.8	50.8	50.8	27	18.0	8	15	90	0.00	30.331 
16:30	51.0	51.0	51.0	28	19.1	7	14	90	0.00	30.326 
16:35	50.8	50.8	50.8	27	18.0	8	17	112	0.00	30.324 
16:40	51.0	51.0	51.0	27	18.2	7	14	112	0.00	30.323 
16:45	51.0	51.0	51.0	27	18.2	6	13	112	0.00	30.323 
16:50	51.1	51.1	51.1	28	19.1	5	14	112	0.00	30.323 
16:55	51.0	51.0	51.0	28	19.1	8	15	112	0.00	30.323 
17:00	50.8	50.8	50.8	27	18.0	6	16	112	0.00	30.322 
17:05	50.8	50.8	50.8	28	18.9	6	14	112	0.00	30.320 
17:10	50.8	50.8	50.8	27	18.0	7	16	112	0.00	30.319 
17:15	50.8	50.8	50.8	27	18.0	7	14	112	0.00	30.319 
17:20	50.7	50.7	50.7	27	18.0	8	13	112	0.00	30.318 
17:25	50.7	50.7	50.7	26	17.1	8	15	90	0.00	30.314 
17:30	50.5	50.5	50.5	26	16.9	7	14	112	0.00	30.309 
17:35	50.4	50.4	50.4	28	18.5	6	13	90	0.00	30.308 
17:40	50.2	50.2	50.2	28	18.4	6	14	90	0.00	30.309 
17:45	49.8	46.9	49.8	28	18.0	7	14	112	0.00	30.311 
17:50	49.5	47.1	49.5	31	20.1	6	12	112	0.00	30.310 
17:55	49.2	46.2	49.2	31	19.9	7	15	112	0.00	30.313 
18:00	48.8	45.7	48.8	32	20.3	7	14	112	0.00	30.314 
18:05	48.2	44.6	48.2	35	21.8	8	16	112	0.00	30.313 
18:10	47.4	43.6	47.4	37	22.5	8	14	112	0.00	30.314 
18:15	46.8	43.3	46.8	39	23.2	7	14	112	0.00	30.322 
18:20	46.2	42.1	46.2	41	23.8	8	14	112	0.00	30.317 
18:25	46.0	42.4	46.0	41	23.6	7	13	112	0.00	30.320 
18:30	45.7	42.5	45.7	42	23.9	6	15	112	0.00	30.321 
18:35	45.4	41.6	45.4	43	24.2	7	20	112	0.00	30.320 
18:40	45.2	43.3	45.2	43	24.0	4	11	112	0.00	30.321 
18:45	44.9	43.0	44.9	45	24.9	4	12	112	0.00	30.325 
18:50	44.6	40.7	44.6	44	24.1	7	15	112	0.00	30.324 
18:55	44.2	40.8	44.2	45	24.2	6	12	112	0.00	30.322 
19:00	43.9	39.3	43.9	45	23.9	8	16	112	0.00	30.318 
19:05	43.5	39.9	43.5	46	24.1	6	16	112	0.00	30.313 
19:10	43.2	39.6	43.2	46	23.8	6	13	112	0.00	30.316 
19:15	42.8	38.5	42.8	46	23.5	7	13	112	0.00	30.319 
19:20	42.3	37.9	42.3	47	23.5	7	14	90	0.00	30.320 
19:25	42.1	37.1	42.1	47	23.3	8	14	90	0.00	30.321 
19:30	41.8	37.3	41.8	48	23.6	7	14	112	0.00	30.320 
19:35	41.3	37.3	41.3	48	23.1	6	12	112	0.00	30.318 
19:40	41.1	35.9	41.1	49	23.4	8	14	112	0.00	30.317 
19:45	40.8	36.1	40.8	49	23.1	7	14	90	0.00	30.318 
19:50	40.6	35.9	40.6	49	23.0	7	12	90	0.00	30.316 
19:55	40.3	35.5	40.3	48	22.2	7	14	112	0.00	30.314 
20:00	40.1	35.9	40.1	49	22.5	6	14	112	0.00	30.317 
20:05	39.6	34.1	39.6	49	22.0	8	15	90	0.00	30.312 
20:10	39.3	33.7	39.3	49	21.8	8	16	112	0.00	30.312 
20:15	38.9	34.4	38.9	50	21.9	6	16	112	0.00	30.313 
20:20	38.6	32.9	38.6	50	21.6	8	16	112	0.00	30.313 
20:25	38.3	33.7	38.3	50	21.3	6	12	112	0.00	30.313 
20:30	38.0	33.4	38.0	50	21.0	6	12	112	0.00	30.315 
20:35	37.8	33.1	37.8	49	20.4	6	14	112	0.00	30.317 
20:40	37.3	31.9	37.3	50	20.4	7	13	112	0.00	30.321 
20:45	37.0	32.9	37.0	50	20.1	5	11	90	0.00	30.323 
20:50	36.8	31.9	36.8	51	20.4	6	13	90	0.00	30.324 
20:55	36.5	31.6	36.5	52	20.6	6	13	90	0.00	30.325 
21:00	36.2	30.6	36.2	52	20.3	7	15	112	0.00	30.327 
21:05	36.0	30.3	36.0	52	20.1	7	16	112	0.00	30.323 
21:10	35.8	30.1	35.8	53	20.4	7	14	112	0.00	30.316 
21:15	35.6	29.8	35.6	54	20.6	7	17	90	0.00	30.313 
21:20	35.5	29.7	35.5	54	20.5	7	12	112	0.00	30.313 
21:25	35.5	29.1	35.5	54	20.5	8	14	90	0.00	30.315 
21:30	35.3	29.5	35.3	53	19.9	7	15	112	0.00	30.322 
21:35	35.2	30.0	35.2	53	19.8	6	12	112	0.00	30.322 
21:40	35.2	30.0	35.2	53	19.8	6	12	112	0.00	30.315 
21:45	35.0	29.1	35.0	53	19.6	7	13	90	0.00	30.315 
21:50	34.9	30.5	34.9	53	19.5	5	11	112	0.00	30.317 
21:55	34.9	30.5	34.9	53	19.5	5	12	112	0.00	30.325 
22:00	34.7	30.2	34.7	53	19.3	5	10	90	0.00	30.325 
22:05	34.6	29.3	34.6	54	19.7	6	13	112	0.00	30.314 
22:10	34.6	29.3	34.6	54	19.7	6	12	90	0.00	30.310 
22:15	34.4	27.8	34.4	54	19.5	8	15	112	0.00	30.302 
22:20	34.3	28.3	34.3	54	19.4	7	14	112	0.00	30.302 
22:25	34.3	28.3	34.3	54	19.4	7	14	90	0.00	30.310 
22:30	34.1	28.7	34.1	54	19.2	6	11	112	0.00	30.304 
22:35	34.1	27.4	34.1	54	19.2	8	17	90	0.00	30.297 
22:40	34.0	27.3	34.0	54	19.1	8	15	90	0.00	30.296 
22:45	34.0	28.6	34.0	54	19.1	6	11	90	0.00	30.295 
22:50	34.0	29.4	34.0	54	19.1	5	10	112	0.00	30.293 
22:55	34.0	29.4	34.0	54	19.1	5	11	112	0.00	30.294 
23:00	34.0	29.4	34.0	54	19.1	5	10	112	0.00	30.301 
23:05	34.0	30.4	34.0	54	19.1	4	10	112	0.00	30.306 
23:10	34.0	29.4	34.0	54	19.1	5	12	112	0.00	30.306 
23:15	34.1	30.5	34.1	54	19.2	4	7	112	0.00	30.307 
23:20	34.1	28.7	34.1	53	18.8	6	13	90	0.00	30.300 
23:25	34.1	29.5	34.1	53	18.8	5	10	90	0.00	30.296 
23:30	34.1	29.5	34.1	53	18.8	5	12	112	0.00	30.297 
23:35	34.1	29.5	34.1	53	18.8	5	11	90	0.00	30.299 
23:40	34.1	29.5	34.1	53	18.8	5	10	90	0.00	30.298 
23:45	34.1	29.5	34.1	53	18.8	5	10	90	0.00	30.297 
23:50	34.1	29.5	34.1	53	18.8	5	9	90	0.00	30.294 
23:55	34.1	30.5	34.1	52	18.3	4	11	90	0.00	30.294 

CoCoRaHS
IN-AL-39
A2 Web Hosting
Creative Commons License
GoDaddy
search engine by freefind advanced

loaded 2018-11-17 14:16:15 • last modified 2010-11-18 10:43:29
Privacy PolicyDisclaimer
• wx.awcolley.com is powered by PmWiki v.2002016 •
• all content (unless otherwise noted) © 2018 A W Colley